Cannon Ball, North Dakota
Current Conditions -  °F | °C
As of 12:35 PM on Thursday 23 Oct 2014 (Local Time) from K7L2 Reporting Station
Clear Clear  
Wind Chill: 68°   Ceiling: Unl
Heat Index: 68°   Visibility: 10mi
Dew Point: 36°   Wind: 9mph
Humidity: 30%   Direction: 260°W
Pressure: 29.89"   Gusts: NA
Location:  46.4°N, 100.6°W
Report Text: K7L2 231835Z AUTO 26008KT 210V280 10SM CLR 20/02 A2989 RMK AO2 PWINO PNO
Loading
Personal Weather Stations






























Interactive Weather Map New forecast layout! Learn more

10-Day Weather Forecast

Advertisements
Track Severe Weather on mobile